Time;durP1;ratioP1;P1;durP2;ratioP2;P2;SDS_P1;SDS_P2;PMS_P1;PMS_P2;Temp;Humidity;BMP_temperature;BMP_pressure;BME280_temperature;BME280_humidity;BME280_pressure;Samples;Min_cycle;Max_cycle;Signal;HPM_P1;HPM_P2
2022/12/19 00:02:03;;;;;;;60.42;29.73;;;;;;;6.90;62.42;101891.59;5011959;28;20029;-73
2022/12/19 00:04:29;;;;;;;62.97;30.65;;;;;;;6.96;61.66;101885.56;5010215;28;20490;-73
2022/12/19 00:06:58;;;;;;;61.95;30.35;;;;;;;6.74;63.08;101879.16;5008191;28;20045;-74
2022/12/19 00:09:23;;;;;;;57.22;29.63;;;;;;;7.30;60.87;101890.53;4990981;28;20045;-73
2022/12/19 00:11:49;;;;;;;53.80;28.52;;;;;;;6.79;62.43;101878.66;4993083;28;20065;-73
2022/12/19 00:14:14;;;;;;;55.92;28.35;;;;;;;6.85;62.70;101889.47;5010639;28;20080;-74
2022/12/19 00:16:39;;;;;;;57.70;29.92;;;;;;;7.22;61.87;101903.94;5012489;28;20128;-72
2022/12/19 00:19:05;;;;;;;58.72;28.08;;;;;;;7.29;61.24;101899.56;5012062;28;20045;-73
2022/12/19 00:21:32;;;;;;;59.63;30.33;;;;;;;6.92;62.50;101898.44;5012889;28;20034;-73
2022/12/19 00:23:58;;;;;;;67.72;27.90;;;;;;;7.06;62.08;101895.03;5013359;28;20071;-73
2022/12/19 00:26:29;;;;;;;56.28;28.05;;;;;;;7.05;62.62;101885.38;5012946;28;20112;-73
2022/12/19 00:29:01;;;;;;;55.88;27.85;;;;;;;6.72;63.01;101886.53;5012413;28;20034;-73
2022/12/19 00:31:29;;;;;;;60.17;27.70;;;;;;;6.53;64.22;101894.97;5012982;28;20027;-73
2022/12/19 00:33:55;;;;;;;54.92;28.52;;;;;;;7.29;61.28;101889.72;5012651;28;20026;-72
2022/12/19 00:36:40;;;;;;;53.13;28.15;;;;;;;6.75;63.06;101888.88;5012382;28;20502;-72
2022/12/19 00:39:06;;;;;;;60.80;29.23;;;;;;;7.12;61.96;101877.44;5009170;28;20061;-72
2022/12/19 00:41:34;;;;;;;59.03;29.17;;;;;;;7.44;61.12;101874.56;5012378;28;20129;-74
2022/12/19 00:44:02;;;;;;;62.15;30.27;;;;;;;6.98;62.77;101887.06;5012973;28;20065;-73
2022/12/19 00:46:29;;;;;;;67.40;30.05;;;;;;;7.37;61.93;101872.78;5013231;28;20113;-73
2022/12/19 00:48:55;;;;;;;63.30;28.92;;;;;;;7.47;61.30;101866.16;5013414;28;20033;-73
2022/12/19 00:51:26;;;;;;;60.17;28.65;;;;;;;7.48;61.19;101851.78;5013106;28;20042;-72
2022/12/19 00:53:53;;;;;;;58.55;30.80;;;;;;;7.15;62.97;101834.34;5012140;28;20042;-73
2022/12/19 00:56:21;;;;;;;63.47;29.63;;;;;;;7.67;61.17;101823.69;5012834;28;20052;-72
2022/12/19 00:58:46;;;;;;;54.03;28.13;;;;;;;6.89;63.46;101818.66;5013620;28;20026;-73
2022/12/19 01:01:15;;;;;;;57.38;28.52;;;;;;;7.63;61.51;101819.72;5013202;28;20052;-74
2022/12/19 01:03:41;;;;;;;59.30;27.42;;;;;;;7.06;62.86;101814.03;4995722;28;20084;-74
2022/12/19 01:06:07;;;;;;;62.95;27.90;;;;;;;7.53;62.26;101806.59;5013018;28;20499;-74
2022/12/19 01:08:32;;;;;;;57.28;29.50;;;;;;;7.09;63.25;101797.66;5013260;28;20053;-73
2022/12/19 01:10:58;;;;;;;57.50;29.80;;;;;;;7.44;62.38;101797.00;5013564;28;20065;-72
2022/12/19 01:13:26;;;;;;;60.97;29.38;;;;;;;7.27;63.18;101808.88;5012635;28;20065;-74
2022/12/19 01:15:51;;;;;;;56.60;28.55;;;;;;;7.31;63.38;101795.97;5011627;28;20458;-74
2022/12/19 01:18:17;;;;;;;60.33;27.02;;;;;;;6.80;64.76;101792.19;5013156;28;20117;-73
2022/12/19 01:20:47;;;;;;;65.70;30.20;;;;;;;7.03;64.40;101790.34;5013189;28;20514;-72
2022/12/19 01:23:15;;;;;;;65.28;30.35;;;;;;;6.84;65.76;101770.25;5012517;28;20022;-73
2022/12/19 01:25:41;;;;;;;68.60;30.42;;;;;;;7.01;65.61;101770.97;5012913;28;20117;-72
2022/12/19 01:28:07;;;;;;;57.78;28.65;;;;;;;7.03;66.04;101774.31;5012050;28;20569;-74
2022/12/19 01:30:33;;;;;;;63.90;30.40;;;;;;;7.13;65.91;101765.00;5012629;28;20038;-74
2022/12/19 01:32:59;;;;;;;55.17;27.55;;;;;;;7.46;64.05;101772.75;5012552;28;20363;-73
2022/12/19 01:35:25;;;;;;;57.83;29.65;;;;;;;7.51;64.93;101787.22;5012731;28;20091;-74
2022/12/19 01:37:51;;;;;;;63.80;30.27;;;;;;;7.36;65.55;101774.84;5012940;28;20030;-73
2022/12/19 01:40:18;;;;;;;58.00;28.95;;;;;;;7.00;66.83;101771.97;5012634;28;20042;-72
2022/12/19 01:42:43;;;;;;;59.50;29.63;;;;;;;7.35;65.09;101775.88;5012135;28;20038;-72
2022/12/19 01:45:09;;;;;;;63.05;30.60;;;;;;;6.98;66.78;101782.84;5012391;28;20125;-73
2022/12/19 01:48:10;;;;;;;59.00;31.55;;;;;;;7.17;65.47;101780.72;5012722;28;20038;-72
2022/12/19 01:50:43;;;;;;;66.97;30.52;;;;;;;7.34;65.60;101775.03;4932544;29;20582;-71
2022/12/19 01:53:11;;;;;;;60.25;30.15;;;;;;;7.66;64.96;101765.88;4932961;29;20028;-73
2022/12/19 01:55:39;;;;;;;65.80;30.25;;;;;;;7.73;64.56;101756.06;4932864;29;20066;-73
2022/12/19 01:58:07;;;;;;;63.72;30.70;;;;;;;8.12;63.08;101753.94;4932336;29;20449;-72
2022/12/19 02:00:32;;;;;;;60.40;30.10;;;;;;;7.43;64.85;101744.53;4932331;29;20110;-73
2022/12/19 02:03:13;;;;;;;71.22;32.60;;;;;;;7.60;64.72;101754.06;4932284;29;20504;-71
2022/12/19 02:05:39;;;;;;;65.55;29.55;;;;;;;7.05;66.52;101749.06;4932586;29;20078;-72
2022/12/19 02:08:06;;;;;;;55.55;27.80;;;;;;;7.27;66.53;101743.88;4935525;29;20075;-72
2022/12/19 02:10:32;;;;;;;55.28;28.30;;;;;;;7.30;66.78;101735.47;4935622;29;20043;-74
2022/12/19 02:12:58;;;;;;;62.80;30.35;;;;;;;7.61;65.51;101731.63;4935732;29;20040;-73
2022/12/19 02:15:28;;;;;;;62.33;30.55;;;;;;;7.58;65.75;101728.50;4935531;29;20079;-72
2022/12/19 02:18:13;;;;;;;56.67;29.23;;;;;;;7.91;64.34;101730.63;4935891;29;20070;-72
2022/12/19 02:20:41;;;;;;;61.30;30.58;;;;;;;7.49;66.25;101733.09;4935546;29;20525;-73
2022/12/19 02:23:31;;;;;;;64.50;32.60;;;;;;;7.96;65.50;101716.66;4935758;29;20039;-73
2022/12/19 02:26:10;;;;;;;64.72;31.52;;;;;;;7.35;66.67;101714.38;4935812;29;20090;-72
2022/12/19 02:28:44;;;;;;;66.13;30.48;;;;;;;7.81;66.26;101713.19;5013325;28;20057;-71
2022/12/19 02:31:30;;;;;;;57.83;29.15;;;;;;;7.58;66.75;101710.63;5015350;28;20048;-73
2022/12/19 02:34:06;;;;;;;63.42;31.33;;;;;;;7.33;67.92;101716.41;5015341;28;20042;-72
2022/12/19 02:36:40;;;;;;;58.45;29.75;;;;;;;7.34;67.15;101718.06;5015226;28;20060;-72
2022/12/19 02:39:08;;;;;;;57.83;31.17;;;;;;;7.65;66.33;101724.06;5015523;28;20403;-72
2022/12/19 02:41:54;;;;;;;59.60;30.58;;;;;;;7.60;66.91;101715.78;5014951;28;20497;-71
2022/12/19 02:44:27;;;;;;;61.63;30.75;;;;;;;7.60;66.48;101715.78;5015238;28;20422;-72
2022/12/19 02:46:56;;;;;;;62.45;31.92;;;;;;;7.77;66.80;101711.88;5015231;28;20026;-72
2022/12/19 02:49:22;;;;;;;68.53;33.95;;;;;;;7.82;66.33;101702.28;5014929;28;20473;-73
2022/12/19 02:51:47;;;;;;;63.22;33.22;;;;;;;7.51;67.77;101698.19;5014975;28;20044;-72
2022/12/19 02:54:13;;;;;;;70.18;34.85;;;;;;;7.40;68.61;101706.63;5015003;28;20057;-72
2022/12/19 02:57:04;;;;;;;66.03;33.15;;;;;;;7.59;67.58;101687.34;5015091;28;20050;-74
2022/12/19 03:00:09;;;;;;;66.30;31.08;;;;;;;7.47;68.76;101694.19;5010965;28;20096;-73
2022/12/19 03:02:59;;;;;;;66.78;35.45;;;;;;;7.41;69.27;101676.22;5014024;28;20045;-73
2022/12/19 03:05:30;;;;;;;58.97;30.80;;;;;;;8.13;66.18;101674.47;5015207;28;20120;-73
2022/12/19 03:07:58;;;;;;;69.65;33.13;;;;;;;8.08;65.27;101671.53;5015322;28;20117;-73
2022/12/19 03:10:36;;;;;;;66.80;33.60;;;;;;;7.76;68.30;101670.91;5014895;28;20038;-73
2022/12/19 03:13:13;;;;;;;70.90;33.63;;;;;;;7.98;66.81;101661.94;4996538;28;20048;-73
2022/12/19 03:15:39;;;;;;;71.78;35.30;;;;;;;7.88;67.01;101666.75;5014701;28;20084;-73
2022/12/19 03:18:05;;;;;;;68.50;33.50;;;;;;;7.97;67.43;101664.81;5014746;28;20045;-73
2022/12/19 03:20:49;;;;;;;78.30;36.38;;;;;;;7.88;68.00;101661.41;5014569;28;20042;-72
2022/12/19 03:23:15;;;;;;;75.30;35.97;;;;;;;7.96;67.40;101655.09;5013409;28;20030;-69
2022/12/19 03:25:44;;;;;;;71.20;37.40;;;;;;;8.24;66.89;101664.09;5013663;28;20029;-69
2022/12/19 03:28:20;;;;;;;73.93;36.95;;;;;;;8.36;65.83;101659.09;4995715;28;20037;-67
2022/12/19 03:30:46;;;;;;;69.10;34.15;;;;;;;8.17;67.19;101648.97;5013087;28;20041;-68
2022/12/19 03:33:15;;;;;;;76.82;36.03;;;;;;;7.96;67.85;101647.91;5012924;28;20167;-66
2022/12/19 03:35:42;;;;;;;74.93;35.95;;;;;;;7.90;67.64;101647.88;5012990;28;20049;-70
2022/12/19 03:38:11;;;;;;;71.18;35.08;;;;;;;8.25;67.51;101635.50;5012156;28;20105;-68
2022/12/19 03:40:38;;;;;;;75.88;36.40;;;;;;;8.14;67.26;101635.97;4996076;28;20128;-68
2022/12/19 03:43:08;;;;;;;79.07;38.03;;;;;;;8.28;67.05;101633.25;5012521;28;20375;-68
2022/12/19 03:45:59;;;;;;;72.65;35.17;;;;;;;8.17;66.74;101628.41;5013194;28;20046;-73
2022/12/19 03:48:24;;;;;;;64.47;33.35;;;;;;;8.01;67.56;101631.31;5014104;28;20037;-73
2022/12/19 03:51:16;;;;;;;76.68;36.03;;;;;;;8.07;67.57;101629.72;5013451;28;20442;-72
2022/12/19 03:53:48;;;;;;;66.85;35.53;;;;;;;7.97;67.54;101635.38;5014107;28;20111;-73
2022/12/19 03:56:45;;;;;;;72.78;36.30;;;;;;;8.40;66.93;101630.91;5013832;28;20046;-72
2022/12/19 03:59:43;;;;;;;76.65;35.88;;;;;;;8.04;67.36;101633.59;5010493;28;20038;-73
2022/12/19 04:02:12;;;;;;;75.03;33.92;;;;;;;7.96;68.50;101623.84;5014202;28;20030;-74
2022/12/19 04:04:49;;;;;;;71.75;35.08;;;;;;;8.32;67.32;101623.00;5013734;28;20474;-73
2022/12/19 04:07:16;;;;;;;70.47;34.28;;;;;;;8.37;67.45;101609.88;4996062;28;20096;-73
2022/12/19 04:09:43;;;;;;;77.10;37.17;;;;;;;8.53;65.97;101601.59;5013595;28;20044;-73
2022/12/19 04:12:16;;;;;;;72.55;33.03;;;;;;;8.22;67.66;101607.22;5013621;28;20050;-73
2022/12/19 04:14:43;;;;;;;66.90;33.92;;;;;;;8.67;66.17;101595.28;5013637;28;20038;-73
2022/12/19 04:17:35;;;;;;;64.93;33.92;;;;;;;8.36;67.22;101594.81;5014166;28;20117;-74
2022/12/19 04:20:08;;;;;;;75.60;34.05;;;;;;;8.19;68.68;101586.19;4995946;28;20125;-74
2022/12/19 04:22:52;;;;;;;72.97;34.92;;;;;;;8.38;67.83;101579.38;5013601;28;20054;-74
2022/12/19 04:25:24;;;;;;;62.38;33.08;;;;;;;8.48;66.98;101577.22;5011672;28;20440;-74
2022/12/19 04:28:03;;;;;;;68.00;32.45;;;;;;;8.82;66.73;101583.44;5012280;28;20057;-73
2022/12/19 04:30:30;;;;;;;74.13;33.45;;;;;;;7.88;69.28;101580.31;5011877;28;20038;-74
2022/12/19 04:32:56;;;;;;;68.18;34.28;;;;;;;8.69;67.50;101579.84;5012750;28;20068;-72
2022/12/19 04:35:21;;;;;;;79.78;35.90;;;;;;;8.28;68.58;101568.16;5012587;28;20509;-74
2022/12/19 04:37:47;;;;;;;81.47;35.17;;;;;;;8.16;68.58;101583.06;5013398;28;20026;-73
2022/12/19 04:40:12;;;;;;;73.72;34.83;;;;;;;8.43;68.49;101574.28;5012305;28;20061;-74
2022/12/19 04:42:38;;;;;;;70.25;34.88;;;;;;;8.51;67.42;101569.59;5011627;28;20038;-74
2022/12/19 04:45:05;;;;;;;70.97;37.08;;;;;;;8.59;68.43;101557.91;5011774;28;20672;-72
2022/12/19 04:47:30;;;;;;;71.65;35.85;;;;;;;8.22;69.02;101559.03;5012431;28;20037;-75
2022/12/19 04:49:55;;;;;;;69.47;33.45;;;;;;;8.68;68.08;101554.09;5013139;28;20133;-75
2022/12/19 04:52:21;;;;;;;70.13;35.05;;;;;;;9.06;66.08;101560.72;5012994;28;20088;-74
2022/12/19 04:54:46;;;;;;;73.28;34.40;;;;;;;8.47;68.24;101554.13;5012297;28;20142;-73
2022/12/19 04:57:12;;;;;;;70.75;35.50;;;;;;;9.43;65.63;101562.16;5012571;28;20030;-75
2022/12/19 04:59:37;;;;;;;74.43;35.80;;;;;;;8.92;67.23;101552.81;5013078;28;20726;-73
2022/12/19 05:02:03;;;;;;;70.30;33.22;;;;;;;8.83;67.29;101552.13;5011983;28;20045;-74
2022/12/19 05:04:28;;;;;;;79.13;34.97;;;;;;;8.99;66.62;101551.81;5011908;28;20568;-74
2022/12/19 05:06:54;;;;;;;69.03;34.55;;;;;;;8.69;67.73;101543.16;4998779;28;20042;-75
2022/12/19 05:09:19;;;;;;;69.63;31.02;;;;;;;8.67;67.90;101553.25;5012590;28;20060;-74
2022/12/19 05:11:44;;;;;;;62.75;32.13;;;;;;;9.18;67.25;101547.59;5012418;28;20498;-74
2022/12/19 05:14:10;;;;;;;67.28;32.90;;;;;;;9.03;66.77;101544.19;5011913;28;20037;-73
2022/12/19 05:16:35;;;;;;;64.93;32.63;;;;;;;9.13;67.25;101545.50;5012917;28;20037;-74
2022/12/19 05:19:01;;;;;;;71.22;32.85;;;;;;;9.13;67.36;101550.88;5012253;28;20060;-73
2022/12/19 05:21:26;;;;;;;45.03;23.27;;;;;;;8.19;70.43;101534.50;5011303;28;20421;-75
2022/12/19 05:23:52;;;;;;;59.72;30.98;;;;;;;8.76;69.13;101529.81;5012578;28;20126;-74
2022/12/19 05:26:17;;;;;;;55.50;29.92;;;;;;;9.18;68.49;101532.31;5012775;28;20521;-75
2022/12/19 05:28:42;;;;;;;61.88;32.08;;;;;;;8.84;69.98;101532.34;5012631;28;20049;-74
2022/12/19 05:31:14;;;;;;;57.10;29.80;;;;;;;9.02;69.11;101532.63;5012261;28;20050;-74
2022/12/19 05:33:41;;;;;;;57.03;30.02;;;;;;;9.12;68.53;101526.94;5012198;28;20141;-74
2022/12/19 05:36:07;;;;;;;60.15;29.77;;;;;;;9.16;68.94;101522.84;5012062;28;20030;-73
2022/12/19 05:38:33;;;;;;;52.67;29.05;;;;;;;9.21;68.74;101523.06;5011302;28;20072;-72
2022/12/19 05:40:59;;;;;;;56.80;29.05;;;;;;;9.03;69.07;101512.88;5015896;28;20653;-74
2022/12/19 05:43:25;;;;;;;59.55;30.48;;;;;;;9.15;70.20;101519.31;5013798;28;20070;-72
2022/12/19 05:45:50;;;;;;;50.75;28.13;;;;;;;9.99;66.32;101514.41;5014582;28;20505;-73
2022/12/19 05:48:16;;;;;;;54.20;28.67;;;;;;;9.23;69.10;101511.13;5014687;28;20085;-73
2022/12/19 05:50:46;;;;;;;53.75;27.75;;;;;;;9.50;67.50;101512.03;5014832;28;20053;-74
2022/12/19 05:53:11;;;;;;;50.25;26.85;;;;;;;9.53;67.87;101517.81;5014515;28;20034;-71
2022/12/19 05:55:37;;;;;;;49.22;26.67;;;;;;;10.00;66.28;101508.00;5015853;28;20053;-74
2022/12/19 05:58:02;;;;;;;51.03;28.30;;;;;;;9.21;69.21;101520.38;5015066;28;20054;-73
2022/12/19 06:00:27;;;;;;;53.70;28.80;;;;;;;9.36;69.40;101524.56;5013644;28;20046;-73
2022/12/19 06:02:53;;;;;;;51.15;26.63;;;;;;;8.92;70.33;101523.31;5014545;28;20090;-73
2022/12/19 06:05:18;;;;;;;49.63;27.35;;;;;;;9.36;69.43;101515.69;5014576;28;20546;-73
2022/12/19 06:07:44;;;;;;;48.90;26.65;;;;;;;9.48;68.32;101527.50;5015394;28;20085;-72
2022/12/19 06:10:09;;;;;;;46.65;26.30;;;;;;;9.30;69.09;101528.03;5013410;28;20033;-75
2022/12/19 06:12:35;;;;;;;53.20;27.88;;;;;;;9.92;67.00;101514.41;5013332;28;20038;-74
2022/12/19 06:15:00;;;;;;;50.97;25.77;;;;;;;9.51;68.57;101538.63;5014654;28;20406;-73
2022/12/19 06:17:26;;;;;;;52.08;28.98;;;;;;;10.14;66.53;101528.50;5015760;28;20062;-74
2022/12/19 06:19:51;;;;;;;57.42;26.48;;;;;;;9.79;68.30;101533.16;5016151;28;20056;-74
2022/12/19 06:22:16;;;;;;;53.97;27.65;;;;;;;9.88;67.63;101526.59;4994534;28;20108;-73
2022/12/19 06:24:42;;;;;;;48.22;26.25;;;;;;;10.10;67.93;101530.75;5013400;28;20044;-73
2022/12/19 06:27:07;;;;;;;48.60;27.08;;;;;;;9.93;68.22;101525.94;5015398;28;20124;-74
2022/12/19 06:29:32;;;;;;;49.03;27.48;;;;;;;10.57;65.29;101524.38;5015224;28;20037;-73
2022/12/19 06:31:58;;;;;;;48.58;25.38;;;;;;;10.55;64.94;101518.38;5015125;28;20645;-73
2022/12/19 06:34:23;;;;;;;47.03;26.10;;;;;;;10.71;65.58;101514.44;5015055;28;20444;-76
2022/12/19 06:36:49;;;;;;;45.97;25.77;;;;;;;10.41;66.57;101509.50;5014114;28;20033;-74
2022/12/19 06:39:15;;;;;;;47.08;25.95;;;;;;;10.26;67.06;101511.56;5014207;28;20430;-74
2022/12/19 06:44:25;;;;;;;39.60;22.92;;;;;;;10.83;65.38;101500.13;5013583;28;20177;-73
2022/12/19 06:46:53;;;;;;;47.70;26.23;;;;;;;10.35;68.09;101494.22;5014424;28;20046;-74
2022/12/19 06:49:18;;;;;;;43.40;24.42;;;;;;;10.27;67.61;101502.47;5014989;28;20084;-74
2022/12/19 06:51:44;;;;;;;44.33;25.35;;;;;;;9.91;69.77;101510.06;5012358;28;20417;-74
2022/12/19 06:54:10;;;;;;;39.15;23.70;;;;;;;10.30;68.66;101504.75;5014783;28;20034;-75
2022/12/19 06:56:37;;;;;;;45.67;24.40;;;;;;;10.16;69.28;101503.06;5013011;28;20053;-74
2022/12/19 06:59:04;;;;;;;36.88;22.92;;;;;;;10.29;68.90;101491.53;5014577;28;20038;-74
2022/12/19 07:01:51;;;;;;;41.03;23.70;;;;;;;10.44;68.73;101495.63;5014997;28;20053;-74
2022/12/19 07:04:25;;;;;;;35.63;21.13;;;;;;;9.82;70.23;101497.03;5015157;28;20049;-75
2022/12/19 07:06:50;;;;;;;34.33;20.67;;;;;;;10.73;68.04;101486.28;5015433;28;20036;-74
2022/12/19 07:09:17;;;;;;;37.25;22.05;;;;;;;10.63;67.29;101487.75;5015143;28;20038;-74
2022/12/19 07:11:42;;;;;;;36.70;22.60;;;;;;;10.93;67.04;101491.63;5014965;28;20378;-74
2022/12/19 07:14:26;;;;;;;35.80;22.70;;;;;;;9.95;70.53;101489.81;5015402;28;20022;-74
2022/12/19 07:16:54;;;;;;;31.52;19.83;;;;;;;10.70;67.79;101475.97;5014763;28;20049;-74
2022/12/19 07:19:21;;;;;;;33.92;20.27;;;;;;;10.63;68.63;101499.34;5014310;28;20044;-74
2022/12/19 07:21:47;;;;;;;35.78;22.05;;;;;;;10.50;69.34;101502.88;5014468;28;20034;-75
2022/12/19 07:24:13;;;;;;;41.22;20.95;;;;;;;10.32;68.65;101485.72;5014740;28;20518;-74
2022/12/19 07:26:40;;;;;;;36.33;23.30;;;;;;;10.49;68.24;101490.50;5014710;28;20037;-75
2022/12/19 07:29:06;;;;;;;35.40;21.58;;;;;;;11.12;66.53;101483.50;5015213;28;20065;-74
2022/12/19 07:31:32;;;;;;;34.28;22.20;;;;;;;11.25;65.15;101488.81;5014384;28;20045;-74
2022/12/19 07:33:57;;;;;;;36.75;23.85;;;;;;;10.94;66.63;101486.03;5014740;28;20049;-73
2022/12/19 07:36:23;;;;;;;36.28;23.00;;;;;;;11.03;67.54;101483.91;5012862;28;20124;-73
2022/12/19 07:38:49;;;;;;;36.58;21.27;;;;;;;11.30;66.02;101483.59;5014146;28;20121;-73
2022/12/19 07:41:15;;;;;;;33.20;21.77;;;;;;;10.90;67.97;101495.56;5013835;28;20030;-74
2022/12/19 07:43:40;;;;;;;33.13;20.77;;;;;;;11.36;66.34;101503.47;5015048;28;20088;-74
2022/12/19 07:46:05;;;;;;;31.85;20.60;;;;;;;10.63;68.89;101507.41;5014717;28;20050;-73
2022/12/19 07:48:31;;;;;;;33.78;20.75;;;;;;;11.15;67.68;101515.34;5014798;28;20084;-73
2022/12/19 07:50:56;;;;;;;30.80;19.60;;;;;;;10.27;70.83;101507.00;5014329;28;20470;-73
2022/12/19 07:53:21;;;;;;;32.10;20.67;;;;;;;11.46;66.31;101501.94;5014734;28;20116;-74
2022/12/19 07:55:50;;;;;;;32.38;20.48;;;;;;;11.11;67.41;101510.59;5014997;28;20516;-74
2022/12/19 07:58:16;;;;;;;29.08;19.95;;;;;;;11.15;67.34;101504.56;5013944;28;20038;-74
2022/12/19 08:00:42;;;;;;;29.65;19.25;;;;;;;10.65;68.58;101505.34;5014131;28;20107;-74
2022/12/19 08:03:07;;;;;;;30.20;20.65;;;;;;;11.40;67.51;101501.97;5014788;28;20042;-75
2022/12/19 08:05:33;;;;;;;30.48;21.05;;;;;;;11.52;66.55;101501.09;5013780;28;20504;-74
2022/12/19 08:07:58;;;;;;;30.58;19.20;;;;;;;11.79;65.97;101509.91;5015114;28;20030;-74
2022/12/19 08:10:24;;;;;;;27.13;18.63;;;;;;;11.68;66.52;101499.78;5011328;28;20128;-73
2022/12/19 08:12:49;;;;;;;28.67;19.13;;;;;;;12.03;65.70;101506.38;5012774;28;20056;-73
2022/12/19 08:15:14;;;;;;;28.83;18.50;;;;;;;11.51;67.82;101504.00;5013413;28;20080;-74
2022/12/19 08:17:40;;;;;;;26.50;19.00;;;;;;;11.57;67.75;101511.22;5012596;28;20533;-73
2022/12/19 08:20:06;;;;;;;23.50;16.48;;;;;;;11.09;69.89;101505.44;5013901;28;20104;-73
2022/12/19 08:22:32;;;;;;;27.88;19.60;;;;;;;11.57;67.98;101507.69;5014159;28;20045;-74
2022/12/19 08:24:57;;;;;;;27.10;17.95;;;;;;;11.34;70.02;101508.25;5013534;28;20041;-74
2022/12/19 08:27:23;;;;;;;31.70;19.52;;;;;;;11.56;67.85;101506.88;5013528;28;20132;-75
2022/12/19 08:29:49;;;;;;;28.40;18.73;;;;;;;11.18;70.35;101509.50;5013638;28;20037;-76
2022/12/19 08:32:15;;;;;;;29.00;18.17;;;;;;;11.59;68.42;101516.38;5013566;28;20096;-76
2022/12/19 08:34:40;;;;;;;32.13;19.40;;;;;;;11.82;68.55;101522.91;5012946;28;20137;-74
2022/12/19 08:37:07;;;;;;;26.25;18.00;;;;;;;11.65;68.56;101513.66;5013525;28;20062;-77
2022/12/19 08:39:32;;;;;;;23.00;15.65;;;;;;;11.29;69.39;101516.09;5013935;28;20052;-74
2022/12/19 08:41:58;;;;;;;26.65;16.92;;;;;;;11.74;68.99;101507.00;5013702;28;20394;-74
2022/12/19 08:44:23;;;;;;;26.40;18.67;;;;;;;12.00;67.56;101508.72;5014117;28;20056;-74
2022/12/19 08:46:49;;;;;;;25.63;18.05;;;;;;;12.29;67.13;101510.75;5014785;28;20433;-73
2022/12/19 08:49:14;;;;;;;27.48;18.75;;;;;;;12.45;66.63;101512.06;5013914;28;20061;-73
2022/12/19 08:51:39;;;;;;;26.52;18.45;;;;;;;12.76;64.78;101520.91;5013964;28;20124;-74
2022/12/19 08:54:05;;;;;;;27.70;17.42;;;;;;;12.54;66.49;101508.88;4996306;28;20034;-74
2022/12/19 08:56:30;;;;;;;25.98;17.60;;;;;;;12.78;66.19;101502.63;5013599;28;20038;-74
2022/12/19 08:58:55;;;;;;;24.77;17.45;;;;;;;12.41;68.28;101511.69;5014049;28;20558;-73
2022/12/19 09:01:22;;;;;;;29.90;18.50;;;;;;;12.76;68.60;101496.63;5014402;28;20034;-73
2022/12/19 09:03:48;;;;;;;27.63;18.23;;;;;;;12.72;70.02;101513.47;5014030;28;20056;-73
2022/12/19 09:06:15;;;;;;;24.30;15.25;;;;;;;12.19;73.42;101513.13;5029237;28;20413;-75
2022/12/19 09:08:41;;;;;;;22.17;15.50;;;;;;;13.16;71.20;101510.53;5028628;28;20037;-74
2022/12/19 09:11:09;;;;;;;26.95;17.00;;;;;;;13.23;70.47;101506.69;5014673;28;20492;-74
2022/12/19 09:13:36;;;;;;;23.33;15.68;;;;;;;13.34;70.13;101517.78;5014360;28;20038;-75
2022/12/19 09:19:43;;;;;;;21.10;14.82;;;;;;;13.36;69.24;101513.00;5017693;28;20115;-74
2022/12/19 09:22:09;;;;;;;23.30;16.75;;;;;;;13.98;67.74;101520.63;4999893;28;20045;-73
2022/12/19 09:24:34;;;;;;;23.13;15.55;;;;;;;13.87;66.59;101519.56;5017671;28;20045;-74
2022/12/19 09:27:00;;;;;;;28.35;17.60;;;;;;;14.00;65.99;101513.97;5017749;28;20120;-73
2022/12/19 09:29:25;;;;;;;24.90;17.15;;;;;;;13.82;66.12;101521.28;5017653;28;20533;-75
2022/12/19 09:31:51;;;;;;;24.13;16.40;;;;;;;13.86;66.23;101523.31;5018016;28;20375;-74
2022/12/19 09:34:16;;;;;;;25.58;16.67;;;;;;;13.12;68.58;101520.97;5017502;28;20105;-75
2022/12/19 09:36:41;;;;;;;17.42;12.40;;;;;;;12.69;71.25;101519.31;5017594;28;20062;-74
2022/12/19 09:39:08;;;;;;;24.65;15.63;;;;;;;13.76;68.01;101522.19;5017900;28;20112;-74
2022/12/19 09:41:55;;;;;;;26.83;15.52;;;;;;;13.88;67.73;101517.66;5017594;28;20103;-74
2022/12/19 09:44:42;;;;;;;19.35;13.32;;;;;;;13.76;68.80;101519.50;5017172;28;20046;-74
2022/12/19 09:47:14;;;;;;;27.08;14.27;;;;;;;13.93;67.94;101521.34;5017893;28;20112;-73
2022/12/19 09:49:42;;;;;;;16.83;13.00;;;;;;;13.40;69.58;101525.00;5017285;28;20049;-74
2022/12/19 09:52:20;;;;;;;20.75;14.40;;;;;;;13.75;69.56;101520.56;5016686;28;20057;-73
2022/12/19 09:55:27;;;;;;;19.13;13.63;;;;;;;13.19;69.58;101534.34;5017189;28;20029;-74
2022/12/19 09:58:04;;;;;;;19.90;13.13;;;;;;;13.49;70.13;101521.75;4936772;29;20047;-74
2022/12/19 10:01:08;;;;;;;16.25;11.05;;;;;;;12.82;72.99;101535.34;4937151;29;20049;-72
2022/12/19 10:03:38;;;;;;;18.60;12.38;;;;;;;13.50;71.02;101538.78;4936636;29;20052;-73
2022/12/19 10:06:15;;;;;;;19.58;13.73;;;;;;;13.84;70.19;101530.81;4936850;29;20043;-75
2022/12/19 10:08:44;;;;;;;20.05;12.70;;;;;;;14.16;68.47;101527.84;4937099;29;20550;-74
2022/12/19 10:11:19;;;;;;;16.17;11.82;;;;;;;13.99;69.25;101525.81;4950360;29;20094;-76
2022/12/19 10:14:31;;;;;;;16.45;11.05;;;;;;;13.23;72.88;101530.16;4951820;29;20468;-73
2022/12/19 10:17:19;;;;;;;19.85;12.60;;;;;;;13.27;72.31;101522.47;4936035;29;20051;-75
2022/12/19 10:20:02;;;;;;;18.65;12.68;;;;;;;13.92;69.81;101529.66;4936280;29;20579;-73
2022/12/19 10:22:56;;;;;;;19.13;13.85;;;;;;;13.83;69.95;101531.88;4935725;29;20043;-74
2022/12/19 10:25:35;;;;;;;17.33;11.43;;;;;;;13.48;72.31;101530.09;4916446;29;20051;-73
2022/12/19 10:28:03;;;;;;;17.23;12.73;;;;;;;13.83;70.21;101523.78;4916379;29;20119;-74
2022/12/19 10:31:11;;;;;;;21.23;12.82;;;;;;;13.84;70.67;101525.41;4916607;29;20111;-74
2022/12/19 10:33:44;;;;;;;19.13;13.05;;;;;;;13.14;72.38;101520.72;4930946;28;20043;-74
2022/12/19 10:36:10;;;;;;;18.85;12.90;;;;;;;13.63;71.76;101514.28;4974658;28;20132;-73
2022/12/19 10:39:41;;;;;;;18.08;12.93;;;;;;;14.16;68.24;101511.63;4974276;28;20048;-72
2022/12/19 10:42:40;;;;;;;18.98;12.48;;;;;;;13.75;71.35;101521.41;4917610;29;20420;-75
2022/12/19 10:45:44;;;;;;;18.50;13.27;;;;;;;13.89;70.35;101511.22;4916744;29;20058;-73
2022/12/19 10:48:17;;;;;;;14.85;11.57;;;;;;;14.23;69.13;101499.66;4917311;29;20619;-73
2022/12/19 10:50:43;;;;;;;17.05;12.88;;;;;;;14.02;69.94;101511.84;4917387;29;20048;-73
2022/12/19 10:53:10;;;;;;;15.57;11.80;;;;;;;13.48;72.15;101516.56;4917295;29;20059;-74
2022/12/19 10:55:43;;;;;;;17.73;12.35;;;;;;;13.76;70.81;101517.63;4916977;29;20056;-74
2022/12/19 10:58:20;;;;;;;16.52;11.27;;;;;;;13.33;73.12;101522.34;4916702;29;20040;-73
2022/12/19 11:01:03;;;;;;;17.20;12.38;;;;;;;13.89;71.66;101517.47;4916151;29;20071;-74
2022/12/19 11:03:30;;;;;;;17.80;11.57;;;;;;;13.58;72.07;101519.56;4935451;29;20039;-74
2022/12/19 11:05:57;;;;;;;21.58;12.50;;;;;;;13.41;72.47;101515.81;4933722;29;20036;-74
2022/12/19 11:08:31;;;;;;;24.10;13.00;;;;;;;13.89;71.13;101522.03;4915812;29;20138;-73
2022/12/19 11:11:17;;;;;;;16.98;12.07;;;;;;;14.09;70.81;101533.38;4916274;29;20044;-74
2022/12/19 11:13:47;;;;;;;19.33;12.20;;;;;;;13.98;71.67;101526.03;4998398;28;20048;-74
2022/12/19 11:17:08;;;;;;;17.65;12.88;;;;;;;14.55;68.77;101519.94;5014958;28;20125;-74
2022/12/19 11:19:38;;;;;;;19.05;12.10;;;;;;;14.43;68.93;101511.00;5015142;28;20422;-74
2022/12/19 11:22:13;;;;;;;20.27;12.83;;;;;;;14.85;67.71;101515.25;5014889;28;20041;-73
2022/12/19 11:24:49;;;;;;;21.48;13.07;;;;;;;14.82;67.88;101509.47;5014878;28;20452;-74
2022/12/19 11:27:31;;;;;;;19.95;12.85;;;;;;;15.15;66.52;101512.38;5015209;28;20087;-77
2022/12/19 11:30:34;;;;;;;18.20;12.00;;;;;;;14.59;68.51;101507.59;4997500;28;20042;-75
2022/12/19 11:33:14;;;;;;;13.93;11.02;;;;;;;14.63;68.24;101503.38;5015272;28;20069;-74
2022/12/19 11:36:00;;;;;;;17.42;11.85;;;;;;;14.76;68.19;101497.69;5013700;28;20096;-73
2022/12/19 11:38:40;;;;;;;15.60;11.40;;;;;;;14.49;68.75;101498.41;5013255;28;20112;-74